Time;durP1;ratioP1;P1;durP2;ratioP2;P2;SDS_P1;SDS_P2;PMS_P1;PMS_P2;Temp;Humidity;BMP_temperature;BMP_pressure;BME280_temperature;BME280_humidity;BME280_pressure;Samples;Min_cycle;Max_cycle;Signal;HPM_P1;HPM_P2
2021/09/16 00:00:05;;;;;;;5.80;1.92;;;20.50;85.10;;;;;;5012390;28;20475;-73
2021/09/16 00:02:30;;;;;;;5.20;1.60;;;20.50;85.10;;;;;;5012816;28;20028;-73
2021/09/16 00:04:55;;;;;;;4.22;1.73;;;20.50;84.80;;;;;;5029974;28;20022;-72
2021/09/16 00:07:21;;;;;;;5.65;2.05;;;20.50;84.80;;;;;;5013723;28;20029;-72
2021/09/16 00:09:46;;;;;;;7.30;1.88;;;20.50;84.90;;;;;;5013141;28;20057;-73
2021/09/16 00:12:12;;;;;;;4.70;1.70;;;20.50;85.10;;;;;;5030610;28;20044;-72
2021/09/16 00:14:38;;;;;;;4.95;1.90;;;20.50;84.80;;;;;;5031257;28;20022;-72
2021/09/16 00:17:03;;;;;;;4.55;2.00;;;20.50;84.60;;;;;;5013565;28;20029;-73
2021/09/16 00:19:29;;;;;;;4.22;1.48;;;20.50;84.80;;;;;;5029868;28;20465;-74
2021/09/16 00:21:54;;;;;;;6.90;1.85;;;20.50;84.70;;;;;;5030583;28;20491;-73
2021/09/16 00:24:20;;;;;;;3.22;1.50;;;20.50;84.50;;;;;;5013207;28;20108;-73
2021/09/16 00:26:45;;;;;;;6.18;1.80;;;20.50;84.70;;;;;;5012819;28;20098;-73
2021/09/16 00:29:11;;;;;;;5.32;1.70;;;20.50;84.10;;;;;;5013174;28;20061;-73
2021/09/16 00:31:37;;;;;;;4.05;1.50;;;20.50;84.40;;;;;;5012988;28;20022;-73
2021/09/16 00:34:03;;;;;;;4.47;1.50;;;20.50;84.00;;;;;;5016686;28;20506;-75
2021/09/16 00:36:28;;;;;;;5.85;1.52;;;20.50;84.00;;;;;;5013650;28;20052;-73
2021/09/16 00:38:54;;;;;;;3.33;1.45;;;20.50;84.10;;;;;;5016785;28;20026;-74
2021/09/16 00:41:20;;;;;;;5.40;1.60;;;20.50;84.20;;;;;;5016295;28;20028;-73
2021/09/16 00:43:46;;;;;;;3.42;1.38;;;20.50;84.10;;;;;;5034209;28;20033;-72
2021/09/16 00:46:11;;;;;;;5.57;1.58;;;20.50;84.00;;;;;;5034772;28;20442;-73
2021/09/16 00:48:37;;;;;;;4.90;1.35;;;20.50;83.90;;;;;;5033984;28;20087;-72
2021/09/16 00:51:02;;;;;;;4.25;1.35;;;20.40;83.50;;;;;;5016106;28;20048;-72
2021/09/16 00:53:29;;;;;;;3.78;1.23;;;20.40;83.70;;;;;;5033545;28;20092;-73
2021/09/16 00:55:57;;;;;;;5.30;1.20;;;20.40;83.80;;;;;;5016776;28;20064;-73
2021/09/16 00:58:24;;;;;;;5.25;1.42;;;20.40;83.70;;;;;;5016187;28;20026;-72
2021/09/16 01:00:50;;;;;;;4.78;1.30;;;20.40;83.20;;;;;;5033317;28;20083;-73
2021/09/16 01:03:16;;;;;;;7.10;1.23;;;20.40;83.30;;;;;;5034290;28;20430;-73
2021/09/16 01:05:41;;;;;;;4.28;1.10;;;20.40;83.10;;;;;;5016231;28;20076;-73
2021/09/16 01:08:07;;;;;;;5.28;1.20;;;20.40;83.00;;;;;;5015965;28;20028;-73
2021/09/16 01:10:33;;;;;;;2.13;1.08;;;20.40;83.10;;;;;;5034024;28;20108;-73
2021/09/16 01:12:59;;;;;;;4.57;1.13;;;20.40;82.90;;;;;;5033616;28;20143;-73
2021/09/16 01:15:24;;;;;;;3.78;1.10;;;20.30;83.00;;;;;;5016493;28;20036;-74
2021/09/16 01:17:50;;;;;;;4.18;1.00;;;20.30;83.00;;;;;;5016425;28;20487;-73
2021/09/16 01:20:16;;;;;;;4.18;1.15;;;20.30;83.10;;;;;;5016029;28;20033;-73
2021/09/16 01:22:41;;;;;;;7.43;1.23;;;20.30;83.00;;;;;;5033909;28;20030;-72
2021/09/16 01:25:08;;;;;;;3.25;1.10;;;20.30;82.70;;;;;;5032023;28;20510;-75
2021/09/16 01:27:33;;;;;;;2.88;0.90;;;20.40;82.80;;;;;;5016517;28;20129;-72
2021/09/16 01:30:00;;;;;;;3.55;1.05;;;20.40;82.60;;;;;;5029935;28;20500;-73
2021/09/16 01:32:25;;;;;;;3.55;1.05;;;20.30;82.50;;;;;;5033771;28;20021;-73
2021/09/16 01:34:52;;;;;;;6.05;1.10;;;20.30;82.60;;;;;;5033580;28;20025;-72
2021/09/16 01:37:17;;;;;;;3.03;1.10;;;20.30;82.50;;;;;;5033698;28;20026;-73
2021/09/16 01:39:43;;;;;;;2.78;1.00;;;20.30;82.90;;;;;;5033050;28;20100;-74
2021/09/16 01:42:09;;;;;;;3.42;1.02;;;20.40;82.80;;;;;;5032833;28;20036;-73
2021/09/16 01:44:34;;;;;;;3.72;0.90;;;20.30;82.40;;;;;;5016128;28;20021;-73
2021/09/16 01:47:02;;;;;;;3.35;0.82;;;20.30;82.40;;;;;;5015972;28;20018;-73
2021/09/16 01:49:29;;;;;;;4.00;1.20;;;20.30;82.70;;;;;;5033063;28;20021;-73
2021/09/16 01:51:54;;;;;;;3.63;1.10;;;20.30;82.70;;;;;;5015193;28;20030;-72
2021/09/16 01:54:21;;;;;;;3.22;0.90;;;20.30;82.80;;;;;;5015697;28;20032;-73
2021/09/16 01:56:47;;;;;;;4.13;0.90;;;20.30;82.40;;;;;;5014796;28;20022;-72
2021/09/16 01:59:12;;;;;;;2.65;1.15;;;20.20;82.50;;;;;;5033151;28;20025;-72
2021/09/16 02:01:38;;;;;;;4.93;1.30;;;20.20;82.60;;;;;;5015260;28;20045;-73
2021/09/16 02:04:04;;;;;;;2.75;1.05;;;20.20;82.70;;;;;;5015231;28;20082;-72
2021/09/16 02:06:29;;;;;;;2.72;1.02;;;20.20;82.50;;;;;;5033317;28;20021;-72
2021/09/16 02:08:55;;;;;;;5.03;1.00;;;20.20;82.70;;;;;;5032501;28;20041;-72
2021/09/16 02:11:20;;;;;;;3.90;1.00;;;20.30;82.20;;;;;;5032735;28;20065;-73
2021/09/16 02:13:46;;;;;;;4.22;0.90;;;20.30;82.20;;;;;;5033022;28;20022;-72
2021/09/16 02:16:12;;;;;;;2.38;0.80;;;20.30;82.00;;;;;;5032926;28;20043;-72
2021/09/16 02:18:37;;;;;;;3.33;0.90;;;20.30;81.80;;;;;;5010210;28;20450;-72
2021/09/16 02:21:03;;;;;;;2.55;0.80;;;20.30;82.10;;;;;;5024188;28;20040;-72
2021/09/16 02:23:28;;;;;;;2.38;0.88;;;20.30;82.00;;;;;;5034858;28;20028;-72
2021/09/16 02:25:54;;;;;;;2.95;0.90;;;20.20;81.50;;;;;;5032370;28;20026;-72
2021/09/16 02:28:19;;;;;;;2.67;0.80;;;20.20;81.80;;;;;;5032580;28;20017;-72
2021/09/16 02:30:45;;;;;;;2.88;0.80;;;20.20;81.90;;;;;;5014909;28;20022;-72
2021/09/16 02:33:11;;;;;;;4.68;1.10;;;20.20;81.70;;;;;;5032305;28;20025;-72
2021/09/16 02:35:36;;;;;;;4.80;0.85;;;20.20;81.20;;;;;;5032653;28;20514;-72
2021/09/16 02:38:02;;;;;;;4.68;0.90;;;20.20;80.90;;;;;;5014585;28;20059;-73
2021/09/16 02:40:28;;;;;;;3.78;0.90;;;20.20;81.00;;;;;;5032141;28;20029;-72
2021/09/16 02:42:54;;;;;;;3.92;0.70;;;20.20;80.90;;;;;;5014762;28;20064;-73
2021/09/16 02:45:20;;;;;;;1.85;0.70;;;20.20;80.70;;;;;;5014836;28;20051;-72
2021/09/16 02:47:46;;;;;;;2.65;0.70;;;20.10;80.30;;;;;;5032103;28;20433;-72
2021/09/16 02:50:12;;;;;;;3.47;0.80;;;20.10;80.70;;;;;;5013925;28;20022;-72
2021/09/16 02:52:37;;;;;;;3.63;1.00;;;20.10;80.70;;;;;;5032426;28;20097;-73
2021/09/16 02:55:03;;;;;;;3.20;0.63;;;20.10;80.50;;;;;;5014184;28;20033;-74
2021/09/16 02:57:29;;;;;;;5.32;1.00;;;20.00;80.40;;;;;;5032260;28;20028;-73
2021/09/16 02:59:55;;;;;;;3.97;0.82;;;20.00;80.50;;;;;;5031364;28;20017;-72
2021/09/16 03:02:20;;;;;;;1.35;0.70;;;20.10;80.30;;;;;;5031303;28;20035;-72
2021/09/16 03:04:46;;;;;;;3.13;0.80;;;20.10;80.20;;;;;;5031958;28;20076;-72
2021/09/16 03:07:11;;;;;;;2.70;0.60;;;20.10;80.10;;;;;;5015946;28;20390;-72
2021/09/16 03:09:37;;;;;;;3.55;0.68;;;20.20;80.10;;;;;;5024179;28;20548;-72
2021/09/16 03:12:03;;;;;;;2.33;0.68;;;20.10;80.10;;;;;;5031977;28;20039;-72
2021/09/16 03:14:28;;;;;;;3.13;0.85;;;20.10;80.00;;;;;;5031897;28;20061;-72
2021/09/16 03:16:54;;;;;;;5.70;0.90;;;20.00;79.40;;;;;;5031562;28;20064;-72
2021/09/16 03:19:19;;;;;;;4.60;0.90;;;20.10;79.60;;;;;;5013812;28;20029;-72
2021/09/16 03:21:45;;;;;;;3.92;0.90;;;20.00;79.60;;;;;;5031764;28;20026;-72
2021/09/16 03:24:10;;;;;;;3.20;0.80;;;20.00;80.10;;;;;;5013920;28;20071;-73
2021/09/16 03:26:36;;;;;;;3.83;0.70;;;20.10;79.90;;;;;;5031513;28;20021;-73
2021/09/16 03:29:02;;;;;;;2.92;0.80;;;20.00;80.00;;;;;;5031485;28;20072;-73
2021/09/16 03:31:27;;;;;;;3.05;0.65;;;20.00;80.00;;;;;;5031654;28;20026;-73
2021/09/16 03:33:53;;;;;;;3.20;0.77;;;19.90;79.60;;;;;;5036819;28;20029;-72
2021/09/16 03:36:18;;;;;;;3.40;0.60;;;19.80;79.20;;;;;;5038060;28;20051;-73
2021/09/16 03:38:44;;;;;;;3.35;0.82;;;19.80;79.10;;;;;;5013460;28;20071;-73
2021/09/16 03:41:09;;;;;;;2.83;0.75;;;19.80;79.70;;;;;;5013410;28;20497;-74
2021/09/16 03:43:35;;;;;;;3.40;0.80;;;19.80;78.90;;;;;;5013811;28;20044;-72
2021/09/16 03:46:01;;;;;;;9.52;1.48;;;19.80;79.50;;;;;;5031207;28;20055;-73
2021/09/16 03:48:26;;;;;;;3.72;0.85;;;19.80;79.50;;;;;;5012914;28;20033;-73
2021/09/16 03:50:52;;;;;;;1.30;0.60;;;19.90;79.00;;;;;;5031412;28;20035;-74
2021/09/16 03:53:18;;;;;;;2.03;0.60;;;19.90;79.10;;;;;;5031367;28;20503;-72
2021/09/16 03:55:44;;;;;;;2.45;0.60;;;19.90;79.10;;;;;;5030407;28;20469;-71
2021/09/16 03:58:10;;;;;;;2.83;0.77;;;19.90;79.70;;;;;;5030697;28;20063;-72
2021/09/16 04:00:35;;;;;;;3.53;1.05;;;19.90;79.10;;;;;;5030805;28;20037;-72
2021/09/16 04:03:11;;;;;;;4.10;0.90;;;19.90;79.30;;;;;;5030573;28;20052;-73
2021/09/16 04:05:38;;;;;;;3.63;0.80;;;19.90;79.40;;;;;;5011377;28;20030;-71
2021/09/16 04:08:05;;;;;;;2.60;0.70;;;19.90;79.50;;;;;;5030766;28;20025;-73
2021/09/16 04:10:30;;;;;;;3.63;0.80;;;19.90;79.10;;;;;;5030665;28;20065;-72
2021/09/16 04:12:56;;;;;;;5.25;0.80;;;19.90;79.10;;;;;;5034041;28;20068;-72
2021/09/16 04:15:21;;;;;;;2.42;0.90;;;19.90;79.20;;;;;;5035133;28;20072;-72
2021/09/16 04:17:47;;;;;;;4.20;0.95;;;19.90;79.00;;;;;;5034160;28;20113;-73
2021/09/16 04:20:13;;;;;;;3.42;0.80;;;19.90;79.10;;;;;;5015083;28;20660;-72
2021/09/16 04:22:38;;;;;;;1.95;0.50;;;19.80;79.50;;;;;;5021875;28;20109;-72
2021/09/16 04:25:04;;;;;;;4.00;0.90;;;19.80;79.20;;;;;;5016700;28;20024;-72
2021/09/16 04:27:30;;;;;;;3.17;0.70;;;19.80;79.30;;;;;;5034582;28;20033;-72
2021/09/16 04:29:56;;;;;;;2.15;0.63;;;19.80;79.10;;;;;;5032393;28;20502;-72
2021/09/16 04:32:21;;;;;;;2.83;0.88;;;19.80;79.10;;;;;;5024968;28;20525;-72
2021/09/16 04:34:47;;;;;;;3.72;1.05;;;19.70;78.90;;;;;;5023898;28;20395;-75
2021/09/16 04:37:12;;;;;;;4.18;0.93;;;19.70;78.80;;;;;;5028709;28;20515;-74
2021/09/16 04:39:38;;;;;;;3.08;0.95;;;19.70;78.70;;;;;;5010354;28;20068;-72
2021/09/16 04:42:05;;;;;;;4.13;0.95;;;19.70;78.80;;;;;;5028637;28;20037;-73
2021/09/16 04:44:31;;;;;;;5.03;0.82;;;19.80;78.80;;;;;;5028629;28;20049;-75
2021/09/16 04:46:57;;;;;;;4.72;1.02;;;19.80;78.60;;;;;;5028495;28;20025;-73
2021/09/16 04:49:22;;;;;;;4.25;0.80;;;19.80;78.10;;;;;;5010583;28;20175;-73
2021/09/16 04:51:48;;;;;;;4.63;0.88;;;19.70;77.70;;;;;;5010698;28;20048;-71
2021/09/16 04:54:13;;;;;;;3.95;0.90;;;19.70;78.10;;;;;;5028064;28;20430;-71
2021/09/16 04:56:39;;;;;;;4.88;1.30;;;19.70;78.70;;;;;;5010275;28;20032;-73
2021/09/16 04:59:04;;;;;;;3.63;0.93;;;19.70;78.80;;;;;;5027795;28;20060;-71
2021/09/16 05:01:30;;;;;;;4.43;1.10;;;19.80;78.90;;;;;;5009269;28;20026;-71
2021/09/16 05:03:56;;;;;;;5.53;1.00;;;19.70;78.90;;;;;;5027869;28;20625;-72
2021/09/16 05:06:21;;;;;;;3.65;0.98;;;19.70;78.90;;;;;;5037565;28;20134;-72
2021/09/16 05:08:47;;;;;;;9.27;2.03;;;19.70;78.60;;;;;;5019662;28;20026;-72
2021/09/16 05:11:13;;;;;;;27.83;3.17;;;19.70;78.90;;;;;;5028156;28;20038;-72
2021/09/16 05:13:38;;;;;;;12.10;1.90;;;19.70;77.80;;;;;;5010019;28;20033;-72
2021/09/16 05:16:04;;;;;;;7.65;1.88;;;19.70;77.80;;;;;;5009738;28;20029;-72
2021/09/16 05:18:30;;;;;;;9.07;1.60;;;19.60;77.10;;;;;;5011272;28;20025;-72
2021/09/16 05:20:55;;;;;;;12.20;2.08;;;19.50;77.50;;;;;;5028896;28;20084;-71
2021/09/16 05:23:21;;;;;;;9.05;1.60;;;19.40;78.20;;;;;;5027480;28;20032;-71
2021/09/16 05:25:47;;;;;;;7.10;1.73;;;19.30;78.00;;;;;;5028738;28;20487;-75
2021/09/16 05:28:12;;;;;;;8.13;1.80;;;19.30;78.20;;;;;;5011587;28;20503;-72
2021/09/16 05:30:38;;;;;;;9.30;1.75;;;19.30;79.30;;;;;;5021580;28;20131;-71
2021/09/16 05:33:08;;;;;;;7.40;1.95;;;19.20;79.20;;;;;;5010479;28;20085;-75
2021/09/16 05:35:35;;;;;;;6.30;1.88;;;19.20;79.50;;;;;;5009702;28;20021;-72
2021/09/16 05:38:00;;;;;;;8.98;2.45;;;19.20;78.60;;;;;;5009433;28;20141;-73
2021/09/16 05:40:26;;;;;;;7.85;2.20;;;19.00;79.30;;;;;;5010312;28;20641;-73
2021/09/16 05:42:52;;;;;;;5.72;1.80;;;19.20;78.80;;;;;;5010687;28;20037;-70
2021/09/16 05:45:18;;;;;;;5.43;1.58;;;19.20;78.00;;;;;;5010453;28;20394;-72
2021/09/16 05:47:43;;;;;;;9.10;2.03;;;19.10;78.80;;;;;;5010433;28;20029;-73
2021/09/16 05:50:09;;;;;;;7.40;1.83;;;19.10;78.50;;;;;;5009657;28;20029;-73
2021/09/16 05:52:35;;;;;;;4.95;1.73;;;19.10;78.50;;;;;;5026554;28;20029;-72
2021/09/16 05:55:00;;;;;;;6.78;1.80;;;18.70;79.70;;;;;;5026973;28;20470;-73
2021/09/16 05:57:26;;;;;;;6.32;1.83;;;18.50;80.50;;;;;;5009788;28;20026;-71
2021/09/16 05:59:51;;;;;;;4.60;1.50;;;18.80;79.90;;;;;;5042491;28;20033;-73
2021/09/16 06:02:19;;;;;;;10.05;2.08;;;19.00;78.90;;;;;;5026815;28;20071;-72
2021/09/16 06:04:44;;;;;;;4.40;1.92;;;19.10;78.30;;;;;;5009328;28;20022;-74
2021/09/16 06:07:10;;;;;;;7.38;2.03;;;18.90;78.60;;;;;;5005961;28;20033;-73
2021/09/16 06:09:35;;;;;;;8.60;2.08;;;19.00;81.30;;;;;;5007026;28;20503;-72
2021/09/16 06:12:02;;;;;;;8.35;1.85;;;19.20;80.60;;;;;;5007747;28;20099;-74
2021/09/16 06:14:28;;;;;;;8.20;1.98;;;19.20;80.00;;;;;;5026035;28;20041;-73
2021/09/16 06:16:54;;;;;;;12.40;1.80;;;19.00;79.20;;;;;;5040708;28;20037;-72
2021/09/16 06:19:19;;;;;;;5.97;1.70;;;18.90;79.90;;;;;;5025955;28;20030;-71
2021/09/16 06:21:45;;;;;;;4.20;1.60;;;18.80;81.20;;;;;;5026359;28;20091;-74
2021/09/16 06:24:11;;;;;;;7.07;1.73;;;18.80;80.00;;;;;;5025936;28;20030;-72
2021/09/16 06:26:36;;;;;;;5.03;1.85;;;18.80;80.20;;;;;;5008398;28;20033;-73
2021/09/16 06:29:02;;;;;;;7.25;1.95;;;18.80;79.70;;;;;;5026119;28;20490;-72
2021/09/16 06:31:27;;;;;;;7.55;2.00;;;18.50;81.00;;;;;;5008007;28;20045;-72
2021/09/16 06:33:53;;;;;;;6.07;2.33;;;18.70;80.60;;;;;;5040466;28;20068;-73
2021/09/16 06:36:18;;;;;;;7.10;1.88;;;18.70;79.70;;;;;;5007873;28;20072;-73
2021/09/16 06:38:44;;;;;;;5.05;2.15;;;18.70;81.00;;;;;;5025309;28;20368;-72
2021/09/16 06:41:09;;;;;;;5.30;2.05;;;18.60;81.30;;;;;;5025916;28;20030;-71
2021/09/16 06:43:35;;;;;;;4.22;1.80;;;18.70;81.40;;;;;;5025900;28;20070;-75
2021/09/16 06:46:00;;;;;;;5.20;1.80;;;18.80;80.30;;;;;;5025352;28;20025;-74
2021/09/16 06:48:26;;;;;;;6.88;2.00;;;18.80;80.40;;;;;;5025262;28;20029;-74
2021/09/16 06:50:51;;;;;;;6.30;1.92;;;18.90;80.00;;;;;;5025799;28;20033;-71
2021/09/16 06:53:17;;;;;;;5.47;1.95;;;19.00;80.40;;;;;;5007584;28;20586;-72
2021/09/16 06:55:43;;;;;;;4.68;1.90;;;19.10;80.60;;;;;;5040702;28;20030;-72
2021/09/16 06:58:08;;;;;;;5.38;1.80;;;19.00;80.30;;;;;;5025530;28;20025;-72
2021/09/16 07:00:33;;;;;;;3.47;1.80;;;19.00;80.40;;;;;;5040431;28;20025;-71
2021/09/16 07:02:59;;;;;;;4.13;1.92;;;19.00;80.50;;;;;;5025416;28;20040;-72
2021/09/16 07:05:24;;;;;;;8.27;2.22;;;18.90;80.60;;;;;;5023672;28;20310;-72
2021/09/16 07:07:50;;;;;;;5.72;2.03;;;18.70;81.80;;;;;;4987346;28;20188;-71
2021/09/16 07:10:15;;;;;;;6.65;2.50;;;18.80;81.60;;;;;;5005854;28;20030;-74
2021/09/16 07:12:41;;;;;;;5.22;2.10;;;18.80;81.50;;;;;;4987459;28;20571;-73
2021/09/16 07:15:07;;;;;;;5.57;2.30;;;18.90;81.60;;;;;;4987319;28;20018;-72
2021/09/16 07:17:33;;;;;;;5.57;2.67;;;18.80;81.40;;;;;;5005561;28;20026;-73
2021/09/16 07:19:58;;;;;;;5.53;2.72;;;18.70;81.60;;;;;;5005213;28;20124;-73
2021/09/16 07:22:24;;;;;;;6.70;2.67;;;18.40;82.70;;;;;;5004670;28;20034;-71
2021/09/16 07:24:50;;;;;;;7.40;2.97;;;18.50;83.00;;;;;;5005461;28;20049;-73
2021/09/16 07:27:16;;;;;;;5.35;2.53;;;18.50;83.20;;;;;;5005116;28;20032;-70
2021/09/16 07:29:42;;;;;;;4.75;2.22;;;18.70;82.50;;;;;;4986944;28;20034;-72
2021/09/16 07:32:07;;;;;;;6.15;2.45;;;18.70;82.60;;;;;;5005191;28;20030;-74
2021/09/16 07:34:33;;;;;;;5.35;2.25;;;18.80;82.40;;;;;;4987509;28;20030;-73
2021/09/16 07:36:59;;;;;;;3.80;2.38;;;18.80;82.40;;;;;;4987177;28;20383;-71
2021/09/16 07:39:24;;;;;;;5.13;2.40;;;18.70;82.20;;;;;;4987350;28;20535;-72
2021/09/16 07:41:50;;;;;;;5.25;2.45;;;18.70;82.60;;;;;;4987355;28;20117;-72
2021/09/16 07:44:17;;;;;;;5.63;2.72;;;18.80;82.30;;;;;;5004539;28;20076;-71
2021/09/16 07:46:43;;;;;;;5.60;2.40;;;18.70;82.50;;;;;;5004848;28;20029;-71
2021/09/16 07:49:09;;;;;;;7.28;2.60;;;18.70;83.00;;;;;;4987302;28;20030;-71
2021/09/16 07:51:34;;;;;;;6.13;2.70;;;18.80;83.00;;;;;;5004594;28;20084;-73
2021/09/16 07:54:00;;;;;;;7.43;2.63;;;18.80;82.50;;;;;;4987105;28;20059;-72
2021/09/16 07:56:25;;;;;;;6.47;2.75;;;18.70;83.20;;;;;;4987325;28;20025;-71
2021/09/16 07:58:51;;;;;;;5.60;2.67;;;18.90;82.60;;;;;;4986307;28;20076;-71
2021/09/16 08:01:17;;;;;;;5.72;2.60;;;19.00;82.20;;;;;;4987121;28;20033;-72
2021/09/16 08:03:43;;;;;;;4.57;2.40;;;18.90;82.70;;;;;;5004646;28;20503;-72
2021/09/16 08:06:09;;;;;;;4.80;2.42;;;18.80;83.20;;;;;;5011935;28;20549;-71
2021/09/16 08:08:34;;;;;;;7.38;2.70;;;18.90;82.90;;;;;;5024071;28;20033;-71
2021/09/16 08:11:00;;;;;;;5.75;3.20;;;18.90;82.90;;;;;;5024572;28;20028;-74
2021/09/16 08:13:26;;;;;;;5.80;3.10;;;18.90;82.90;;;;;;5023980;28;20045;-72
2021/09/16 08:15:53;;;;;;;7.10;2.80;;;18.80;83.40;;;;;;5039826;28;20118;-72
2021/09/16 08:18:18;;;;;;;6.57;3.08;;;18.70;83.90;;;;;;5024079;28;20025;-71
2021/09/16 08:20:48;;;;;;;7.65;3.45;;;18.70;84.30;;;;;;5023984;28;20382;-71
2021/09/16 08:23:15;;;;;;;5.97;2.95;;;18.70;84.00;;;;;;5024358;28;20049;-72
2021/09/16 08:25:40;;;;;;;5.55;2.95;;;18.80;83.80;;;;;;5006185;28;20605;-71
2021/09/16 08:28:06;;;;;;;7.00;2.95;;;18.80;83.90;;;;;;5023781;28;20136;-72
2021/09/16 08:30:31;;;;;;;6.03;2.90;;;18.90;83.60;;;;;;5006559;28;20041;-71
2021/09/16 08:32:57;;;;;;;5.32;2.88;;;19.00;83.00;;;;;;5024601;28;20039;-72
2021/09/16 08:35:23;;;;;;;5.53;2.78;;;19.00;82.80;;;;;;5023850;28;20783;-74
2021/09/16 08:37:48;;;;;;;7.57;3.00;;;19.00;83.50;;;;;;5006740;28;20120;-74
2021/09/16 08:40:14;;;;;;;6.47;3.20;;;19.00;83.10;;;;;;5023822;28;20029;-72
2021/09/16 08:42:42;;;;;;;5.78;2.70;;;19.10;83.00;;;;;;5023954;28;20021;-71
2021/09/16 08:45:14;;;;;;;5.93;3.50;;;19.00;83.20;;;;;;5024280;28;20213;-71
2021/09/16 08:47:40;;;;;;;5.50;3.00;;;18.80;84.30;;;;;;5024148;28;20107;-73
2021/09/16 08:50:07;;;;;;;6.10;2.97;;;19.00;83.80;;;;;;5023464;28;20791;-71
2021/09/16 08:52:37;;;;;;;6.60;3.33;;;19.10;83.20;;;;;;5006144;28;20219;-73
2021/09/16 08:55:03;;;;;;;6.00;3.00;;;19.10;83.00;;;;;;5006086;28;20049;-72
2021/09/16 08:57:29;;;;;;;7.35;3.13;;;19.00;83.60;;;;;;5024074;28;20045;-72
2021/09/16 08:59:55;;;;;;;5.78;3.10;;;19.10;83.00;;;;;;5027620;28;20326;-74
2021/09/16 09:02:21;;;;;;;9.50;2.70;;;19.20;83.00;;;;;;5027690;28;20029;-71
2021/09/16 09:04:46;;;;;;;7.18;3.00;;;19.30;82.80;;;;;;5009202;28;20036;-75
2021/09/16 09:07:18;;;;;;;5.82;2.97;;;19.30;82.50;;;;;;4993632;28;20033;-72
2021/09/16 09:09:44;;;;;;;6.53;2.67;;;19.30;82.50;;;;;;5007806;28;20391;-72
2021/09/16 09:12:12;;;;;;;6.57;3.33;;;19.20;82.80;;;;;;5007023;28;20331;-72
2021/09/16 09:14:41;;;;;;;6.53;3.40;;;19.00;83.80;;;;;;5007680;28;20030;-73
2021/09/16 09:17:23;;;;;;;6.80;2.92;;;19.00;84.20;;;;;;4990070;28;20112;-72
2021/09/16 09:19:54;;;;;;;6.18;2.70;;;19.20;83.60;;;;;;5006994;28;20491;-72
2021/09/16 09:22:28;;;;;;;6.32;3.17;;;19.40;82.60;;;;;;5007571;28;20049;-72
2021/09/16 09:25:00;;;;;;;6.55;3.47;;;19.40;82.50;;;;;;4989659;28;20499;-71
2021/09/16 09:27:27;;;;;;;;;;;19.20;82.80;;;;;;4990046;28;20108;-72
2021/09/16 09:30:03;;;;;;;7.32;2.85;;;19.20;83.00;;;;;;4989707;28;19917;-72
2021/09/16 09:32:50;;;;;;;6.28;2.90;;;19.30;82.60;;;;;;4990132;28;20030;-72
2021/09/16 09:35:45;;;;;;;6.13;2.83;;;19.40;82.30;;;;;;4989712;28;20762;-71
2021/09/16 09:38:18;;;;;;;7.53;3.42;;;19.50;82.00;;;;;;4977092;28;20153;-73
2021/09/16 09:40:47;;;;;;;5.45;2.47;;;19.40;82.30;;;;;;5007595;28;20407;-71
2021/09/16 09:43:24;;;;;;;7.55;2.65;;;19.40;82.30;;;;;;4989240;28;20065;-72
2021/09/16 09:46:09;;;;;;;5.95;2.28;;;19.50;82.10;;;;;;5007428;28;20169;-72
2021/09/16 09:48:57;;;;;;;6.63;2.35;;;19.50;82.00;;;;;;5006725;28;20026;-71
2021/09/16 09:51:45;;;;;;;6.47;2.80;;;19.40;82.30;;;;;;5007139;28;20056;-74
2021/09/16 09:54:40;;;;;;;6.05;2.45;;;19.30;82.90;;;;;;5007018;28;20038;-72
2021/09/16 09:57:16;;;;;;;5.85;2.63;;;19.30;82.90;;;;;;5006458;28;20770;-71
2021/09/16 09:59:51;;;;;;;7.32;2.60;;;19.30;82.70;;;;;;4989364;28;20080;-72
2021/09/16 10:02:18;;;;;;;7.45;2.88;;;19.30;82.60;;;;;;4989006;28;20061;-72
2021/09/16 10:04:44;;;;;;;5.25;2.53;;;19.30;82.40;;;;;;4989035;28;20436;-72
2021/09/16 10:07:25;;;;;;;6.13;2.97;;;19.40;82.50;;;;;;5022316;28;20117;-72
2021/09/16 10:09:58;;;;;;;5.40;2.22;;;19.50;81.90;;;;;;5007395;28;20052;-72
2021/09/16 10:12:24;;;;;;;6.00;2.33;;;19.50;82.20;;;;;;5025897;28;20517;-72
2021/09/16 10:14:50;;;;;;;6.32;2.38;;;19.50;82.30;;;;;;5026260;28;20312;-71
2021/09/16 10:17:16;;;;;;;4.63;2.30;;;19.50;82.30;;;;;;5026163;28;20038;-72
2021/09/16 10:19:41;;;;;;;6.10;2.90;;;19.50;82.10;;;;;;5025623;28;20032;-73
2021/09/16 10:22:17;;;;;;;5.55;2.63;;;19.50;82.40;;;;;;5026456;28;20084;-72
2021/09/16 10:24:43;;;;;;;6.07;2.75;;;19.40;82.30;;;;;;5008461;28;20026;-74
2021/09/16 10:27:27;;;;;;;5.50;2.83;;;19.20;83.60;;;;;;5026122;28;20030;-71
2021/09/16 10:29:53;;;;;;;6.97;3.00;;;19.10;84.10;;;;;;5008115;28;20032;-72
2021/09/16 10:32:18;;;;;;;6.90;3.20;;;19.20;83.60;;;;;;5008517;28;20029;-71
2021/09/16 10:35:01;;;;;;;6.10;2.58;;;19.20;83.80;;;;;;5007763;28;20110;-73
2021/09/16 10:37:37;;;;;;;6.10;2.58;;;19.30;83.50;;;;;;5026119;28;20103;-76
2021/09/16 10:40:24;;;;;;;6.45;2.70;;;19.40;83.20;;;;;;5008145;28;20033;-72
2021/09/16 10:43:02;;;;;;;6.00;2.67;;;19.30;83.60;;;;;;5007655;28;20320;-71
2021/09/16 10:45:32;;;;;;;5.93;3.03;;;19.30;83.20;;;;;;5008030;28;20033;-73
2021/09/16 10:48:13;;;;;;;6.75;2.50;;;19.30;83.40;;;;;;5007808;28;20799;-71
2021/09/16 10:50:45;;;;;;;6.95;2.50;;;19.30;83.90;;;;;;5007443;28;20029;-73
2021/09/16 10:53:30;;;;;;;5.75;2.63;;;19.40;83.50;;;;;;5007725;28;20072;-71
2021/09/16 10:55:56;;;;;;;6.13;2.50;;;19.40;83.40;;;;;;5018699;28;20030;-71
2021/09/16 10:58:24;;;;;;;7.20;2.95;;;19.40;83.40;;;;;;4995403;28;20038;-71
2021/09/16 11:00:50;;;;;;;7.63;2.50;;;19.40;83.70;;;;;;5018739;28;20021;-75
2021/09/16 11:03:16;;;;;;;8.95;3.10;;;19.40;83.90;;;;;;5003363;28;20088;-74
2021/09/16 11:05:46;;;;;;;7.50;2.70;;;19.40;83.80;;;;;;5017229;28;20030;-73
2021/09/16 11:08:15;;;;;;;7.70;3.10;;;19.40;84.00;;;;;;5016035;28;20394;-71
2021/09/16 11:10:41;;;;;;;7.88;3.10;;;19.40;83.90;;;;;;4998207;28;20030;-71
2021/09/16 11:13:50;;;;;;;9.80;3.28;;;19.50;83.90;;;;;;4994950;28;20030;-71
2021/09/16 11:16:20;;;;;;;8.63;2.50;;;19.60;83.60;;;;;;4954682;28;20072;-71
2021/09/16 11:18:47;;;;;;;6.68;3.13;;;19.50;84.20;;;;;;4998748;28;20315;-71
2021/09/16 11:21:13;;;;;;;7.32;2.78;;;19.60;83.40;;;;;;4993154;28;20060;-72
2021/09/16 11:23:42;;;;;;;6.55;3.08;;;19.60;83.70;;;;;;5017665;28;20063;-72
2021/09/16 11:26:21;;;;;;;8.52;3.25;;;19.60;83.70;;;;;;5018852;28;20065;-74
2021/09/16 11:29:06;;;;;;;5.95;2.90;;;19.60;84.10;;;;;;4996218;28;20053;-72
2021/09/16 11:31:32;;;;;;;8.82;3.17;;;19.40;84.50;;;;;;4995089;28;20029;-72
2021/09/16 11:34:13;;;;;;;7.10;2.72;;;19.40;84.60;;;;;;5015922;28;20399;-72
2021/09/16 11:37:06;;;;;;;6.55;2.75;;;19.30;85.00;;;;;;5014203;28;20252;-71
2021/09/16 11:39:32;;;;;;;7.80;2.88;;;19.40;85.00;;;;;;4989499;28;20185;-71
2021/09/16 11:42:13;;;;;;;5.85;2.88;;;19.40;85.00;;;;;;4986992;28;20129;-73
2021/09/16 11:44:55;;;;;;;;;;;19.50;84.80;;;;;;4988480;28;20626;-73
2021/09/16 11:47:21;;;;;;;8.05;3.15;;;19.50;84.90;;;;;;5026345;28;20379;-71
2021/09/16 11:49:46;;;;;;;7.47;2.78;;;19.40;86.10;;;;;;5019059;28;20030;-73
2021/09/16 11:52:20;;;;;;;8.45;2.75;;;19.30;86.90;;;;;;5020886;28;20029;-72
2021/09/16 11:55:25;;;;;;;8.50;2.83;;;19.40;86.50;;;;;;5006127;28;20025;-73
2021/09/16 11:57:58;;;;;;;10.02;2.75;;;19.40;86.20;;;;;;4980834;28;20023;-71
2021/09/16 12:00:44;;;;;;;9.10;2.65;;;19.50;85.70;;;;;;4977768;28;20023;-71
2021/09/16 12:03:13;;;;;;;8.13;2.80;;;19.50;85.60;;;;;;4999797;28;20394;-71
2021/09/16 12:05:40;;;;;;;6.80;2.72;;;19.50;85.30;;;;;;5008688;28;20112;-73
2021/09/16 12:08:08;;;;;;;7.10;2.30;;;19.50;85.40;;;;;;5030932;28;20022;-72
2021/09/16 12:10:36;;;;;;;9.30;2.90;;;19.50;85.40;;;;;;5030323;28;20391;-71
2021/09/16 12:13:02;;;;;;;7.18;2.40;;;19.50;85.60;;;;;;5012961;28;20024;-71
2021/09/16 12:15:27;;;;;;;6.60;2.17;;;19.50;85.20;;;;;;5030592;28;20509;-74
2021/09/16 12:17:53;;;;;;;9.20;2.25;;;19.50;85.00;;;;;;5004742;28;20131;-72
2021/09/16 12:20:19;;;;;;;7.50;2.30;;;19.50;85.40;;;;;;5012990;28;20582;-71
2021/09/16 12:22:44;;;;;;;5.93;2.00;;;19.50;85.30;;;;;;5028460;28;20498;-72
2021/09/16 12:25:10;;;;;;;7.63;2.42;;;19.60;85.20;;;;;;5011517;28;20567;-71
2021/09/16 12:27:36;;;;;;;7.88;2.25;;;19.60;85.10;;;;;;5007589;28;20030;-72
2021/09/16 12:30:22;;;;;;;5.40;2.20;;;19.60;85.40;;;;;;5029694;28;20128;-70
2021/09/16 12:32:47;;;;;;;4.57;1.90;;;19.70;85.10;;;;;;5002728;28;20179;-70
2021/09/16 12:35:17;;;;;;;3.88;1.80;;;19.70;84.90;;;;;;5032493;28;20105;-72
2021/09/16 12:37:43;;;;;;;4.75;1.70;;;19.70;84.60;;;;;;5032155;28;20036;-71
2021/09/16 12:40:24;;;;;;;5.80;2.10;;;19.80;84.60;;;;;;5025396;28;20129;-72
2021/09/16 12:42:50;;;;;;;;;;;19.90;83.90;;;;;;5033465;28;20582;-72
2021/09/16 12:45:16;;;;;;;4.93;1.70;;;20.10;83.50;;;;;;5015429;28;19912;-72
2021/09/16 12:47:49;;;;;;;3.90;1.42;;;20.10;82.70;;;;;;5033953;28;20491;-71
2021/09/16 12:50:16;;;;;;;4.95;1.63;;;20.10;82.20;;;;;;5015862;28;20472;-71